sensor_id;sensor_type;location;lat;lon;timestamp;P1;durP1;ratioP1;P2;durP2;ratioP2
52542;SDS011;38449;52.696;6.186;2022-07-22T00:01:26;11.25;;;3.13;;
52542;SDS011;38449;52.696;6.186;2022-07-22T00:03:52;10.98;;;2.97;;
52542;SDS011;38449;52.696;6.186;2022-07-22T00:06:17;10.52;;;3.17;;
52542;SDS011;38449;52.696;6.186;2022-07-22T00:08:43;7.82;;;3.05;;
52542;SDS011;38449;52.696;6.186;2022-07-22T00:11:09;10.85;;;3.17;;
52542;SDS011;38449;52.696;6.186;2022-07-22T00:13:35;12.65;;;3.05;;
52542;SDS011;38449;52.696;6.186;2022-07-22T00:16:00;8.60;;;3.17;;
52542;SDS011;38449;52.696;6.186;2022-07-22T00:18:26;13.50;;;3.00;;
52542;SDS011;38449;52.696;6.186;2022-07-22T00:20:52;10.02;;;2.67;;
52542;SDS011;38449;52.696;6.186;2022-07-22T00:23:18;8.93;;;2.70;;
52542;SDS011;38449;52.696;6.186;2022-07-22T00:25:43;12.43;;;2.95;;
52542;SDS011;38449;52.696;6.186;2022-07-22T00:28:09;7.55;;;2.33;;
52542;SDS011;38449;52.696;6.186;2022-07-22T00:30:35;9.23;;;2.80;;
52542;SDS011;38449;52.696;6.186;2022-07-22T00:33:00;9.48;;;2.63;;
52542;SDS011;38449;52.696;6.186;2022-07-22T00:35:26;7.78;;;2.42;;
52542;SDS011;38449;52.696;6.186;2022-07-22T00:37:52;10.52;;;3.05;;
52542;SDS011;38449;52.696;6.186;2022-07-22T00:40:17;13.15;;;3.13;;
52542;SDS011;38449;52.696;6.186;2022-07-22T00:42:43;10.25;;;3.10;;
52542;SDS011;38449;52.696;6.186;2022-07-22T00:45:09;9.32;;;2.60;;
52542;SDS011;38449;52.696;6.186;2022-07-22T00:47:36;9.35;;;2.15;;
52542;SDS011;38449;52.696;6.186;2022-07-22T00:50:02;7.15;;;2.83;;
52542;SDS011;38449;52.696;6.186;2022-07-22T00:52:28;9.32;;;2.50;;
52542;SDS011;38449;52.696;6.186;2022-07-22T00:54:55;7.80;;;2.42;;
52542;SDS011;38449;52.696;6.186;2022-07-22T00:57:23;9.35;;;2.65;;
52542;SDS011;38449;52.696;6.186;2022-07-22T00:59:48;8.90;;;2.58;;
52542;SDS011;38449;52.696;6.186;2022-07-22T01:02:14;12.63;;;2.78;;
52542;SDS011;38449;52.696;6.186;2022-07-22T01:04:40;8.10;;;2.40;;
52542;SDS011;38449;52.696;6.186;2022-07-22T01:07:06;8.70;;;2.50;;
52542;SDS011;38449;52.696;6.186;2022-07-22T01:09:31;12.85;;;2.70;;
52542;SDS011;38449;52.696;6.186;2022-07-22T01:11:57;8.38;;;2.45;;
52542;SDS011;38449;52.696;6.186;2022-07-22T01:14:23;9.15;;;2.78;;
52542;SDS011;38449;52.696;6.186;2022-07-22T01:16:48;8.25;;;2.55;;
52542;SDS011;38449;52.696;6.186;2022-07-22T01:19:14;8.90;;;2.63;;
52542;SDS011;38449;52.696;6.186;2022-07-22T01:21:40;6.68;;;2.17;;
52542;SDS011;38449;52.696;6.186;2022-07-22T01:24:05;10.23;;;2.83;;
52542;SDS011;38449;52.696;6.186;2022-07-22T01:26:31;8.40;;;2.88;;
52542;SDS011;38449;52.696;6.186;2022-07-22T01:28:58;7.85;;;2.30;;
52542;SDS011;38449;52.696;6.186;2022-07-22T01:31:24;8.60;;;2.60;;
52542;SDS011;38449;52.696;6.186;2022-07-22T01:33:50;8.60;;;2.53;;
52542;SDS011;38449;52.696;6.186;2022-07-22T01:36:16;10.93;;;2.63;;
52542;SDS011;38449;52.696;6.186;2022-07-22T01:38:42;9.40;;;2.70;;
52542;SDS011;38449;52.696;6.186;2022-07-22T01:41:08;10.32;;;2.95;;
52542;SDS011;38449;52.696;6.186;2022-07-22T01:43:33;8.98;;;2.40;;
52542;SDS011;38449;52.696;6.186;2022-07-22T01:45:59;10.63;;;2.80;;
52542;SDS011;38449;52.696;6.186;2022-07-22T01:48:25;8.18;;;2.33;;
52542;SDS011;38449;52.696;6.186;2022-07-22T01:50:51;9.10;;;2.95;;
52542;SDS011;38449;52.696;6.186;2022-07-22T01:53:17;10.38;;;2.70;;
52542;SDS011;38449;52.696;6.186;2022-07-22T01:55:43;12.23;;;2.60;;
52542;SDS011;38449;52.696;6.186;2022-07-22T01:58:08;9.60;;;2.60;;
52542;SDS011;38449;52.696;6.186;2022-07-22T02:00:34;9.35;;;3.13;;
52542;SDS011;38449;52.696;6.186;2022-07-22T02:03:00;9.48;;;2.72;;
52542;SDS011;38449;52.696;6.186;2022-07-22T02:05:26;7.22;;;2.25;;
52542;SDS011;38449;52.696;6.186;2022-07-22T02:07:51;6.78;;;2.60;;
52542;SDS011;38449;52.696;6.186;2022-07-22T02:10:17;11.52;;;2.75;;
52542;SDS011;38449;52.696;6.186;2022-07-22T02:12:43;9.55;;;2.63;;
52542;SDS011;38449;52.696;6.186;2022-07-22T02:15:09;12.10;;;2.60;;
52542;SDS011;38449;52.696;6.186;2022-07-22T02:17:35;10.60;;;2.63;;
52542;SDS011;38449;52.696;6.186;2022-07-22T02:20:02;6.60;;;2.40;;
52542;SDS011;38449;52.696;6.186;2022-07-22T02:22:28;9.18;;;3.10;;
52542;SDS011;38449;52.696;6.186;2022-07-22T02:24:54;11.63;;;3.03;;
52542;SDS011;38449;52.696;6.186;2022-07-22T02:27:20;12.63;;;2.78;;
52542;SDS011;38449;52.696;6.186;2022-07-22T02:29:45;9.38;;;2.67;;
52542;SDS011;38449;52.696;6.186;2022-07-22T02:32:11;6.60;;;2.22;;
52542;SDS011;38449;52.696;6.186;2022-07-22T02:34:37;9.45;;;3.33;;
52542;SDS011;38449;52.696;6.186;2022-07-22T02:37:02;13.32;;;2.85;;
52542;SDS011;38449;52.696;6.186;2022-07-22T02:39:28;7.00;;;3.35;;
52542;SDS011;38449;52.696;6.186;2022-07-22T02:41:54;8.23;;;2.70;;
52542;SDS011;38449;52.696;6.186;2022-07-22T02:44:19;7.88;;;2.55;;
52542;SDS011;38449;52.696;6.186;2022-07-22T02:46:45;9.13;;;2.83;;
52542;SDS011;38449;52.696;6.186;2022-07-22T02:49:11;10.55;;;3.03;;
52542;SDS011;38449;52.696;6.186;2022-07-22T02:51:37;14.50;;;2.63;;
52542;SDS011;38449;52.696;6.186;2022-07-22T02:54:04;8.82;;;2.63;;
52542;SDS011;38449;52.696;6.186;2022-07-22T02:56:30;8.43;;;2.38;;
52542;SDS011;38449;52.696;6.186;2022-07-22T02:58:56;7.35;;;2.72;;
52542;SDS011;38449;52.696;6.186;2022-07-22T03:01:22;8.20;;;2.53;;
52542;SDS011;38449;52.696;6.186;2022-07-22T03:03:48;9.32;;;2.40;;
52542;SDS011;38449;52.696;6.186;2022-07-22T03:06:13;10.45;;;2.83;;
52542;SDS011;38449;52.696;6.186;2022-07-22T03:08:39;11.80;;;2.97;;
52542;SDS011;38449;52.696;6.186;2022-07-22T03:11:05;10.95;;;2.60;;
52542;SDS011;38449;52.696;6.186;2022-07-22T03:13:31;8.93;;;2.42;;
52542;SDS011;38449;52.696;6.186;2022-07-22T03:15:57;14.02;;;6.03;;
52542;SDS011;38449;52.696;6.186;2022-07-22T03:18:22;9.75;;;2.95;;
52542;SDS011;38449;52.696;6.186;2022-07-22T03:20:48;10.80;;;2.90;;
52542;SDS011;38449;52.696;6.186;2022-07-22T03:23:14;6.32;;;2.53;;
52542;SDS011;38449;52.696;6.186;2022-07-22T03:25:40;9.23;;;3.00;;
52542;SDS011;38449;52.696;6.186;2022-07-22T03:28:06;9.38;;;2.80;;
52542;SDS011;38449;52.696;6.186;2022-07-22T03:30:32;7.25;;;2.40;;
52542;SDS011;38449;52.696;6.186;2022-07-22T03:32:57;7.22;;;2.63;;
52542;SDS011;38449;52.696;6.186;2022-07-22T03:35:23;9.27;;;2.63;;
52542;SDS011;38449;52.696;6.186;2022-07-22T03:37:49;7.15;;;2.40;;
52542;SDS011;38449;52.696;6.186;2022-07-22T03:40:15;7.18;;;2.30;;
52542;SDS011;38449;52.696;6.186;2022-07-22T03:42:41;7.78;;;2.30;;
52542;SDS011;38449;52.696;6.186;2022-07-22T03:45:07;9.23;;;2.55;;
52542;SDS011;38449;52.696;6.186;2022-07-22T03:47:33;6.93;;;2.17;;
52542;SDS011;38449;52.696;6.186;2022-07-22T03:49:59;11.52;;;2.85;;
52542;SDS011;38449;52.696;6.186;2022-07-22T03:52:27;7.30;;;2.00;;
52542;SDS011;38449;52.696;6.186;2022-07-22T03:54:55;8.70;;;2.45;;
52542;SDS011;38449;52.696;6.186;2022-07-22T03:57:21;5.65;;;2.25;;
52542;SDS011;38449;52.696;6.186;2022-07-22T03:59:47;8.77;;;2.10;;
52542;SDS011;38449;52.696;6.186;2022-07-22T04:02:13;7.15;;;2.10;;
52542;SDS011;38449;52.696;6.186;2022-07-22T04:04:39;4.97;;;2.13;;
52542;SDS011;38449;52.696;6.186;2022-07-22T04:07:04;6.05;;;2.10;;
52542;SDS011;38449;52.696;6.186;2022-07-22T04:09:30;5.30;;;2.22;;
52542;SDS011;38449;52.696;6.186;2022-07-22T04:11:56;10.82;;;2.33;;
52542;SDS011;38449;52.696;6.186;2022-07-22T04:14:21;8.27;;;2.75;;
52542;SDS011;38449;52.696;6.186;2022-07-22T04:16:47;7.50;;;2.20;;
52542;SDS011;38449;52.696;6.186;2022-07-22T04:19:13;7.00;;;2.20;;
52542;SDS011;38449;52.696;6.186;2022-07-22T04:21:40;6.80;;;2.65;;
52542;SDS011;38449;52.696;6.186;2022-07-22T04:24:06;5.43;;;2.13;;
52542;SDS011;38449;52.696;6.186;2022-07-22T04:26:32;5.90;;;2.53;;
52542;SDS011;38449;52.696;6.186;2022-07-22T04:28:58;8.10;;;2.40;;
52542;SDS011;38449;52.696;6.186;2022-07-22T04:31:24;7.47;;;2.53;;
52542;SDS011;38449;52.696;6.186;2022-07-22T04:33:49;7.32;;;2.30;;
52542;SDS011;38449;52.696;6.186;2022-07-22T04:36:15;9.68;;;2.80;;
52542;SDS011;38449;52.696;6.186;2022-07-22T04:38:40;5.82;;;2.47;;
52542;SDS011;38449;52.696;6.186;2022-07-22T04:41:06;8.02;;;2.25;;
52542;SDS011;38449;52.696;6.186;2022-07-22T04:43:32;5.75;;;2.13;;
52542;SDS011;38449;52.696;6.186;2022-07-22T04:45:58;8.55;;;2.85;;
52542;SDS011;38449;52.696;6.186;2022-07-22T04:48:24;6.45;;;2.53;;
52542;SDS011;38449;52.696;6.186;2022-07-22T04:50:49;9.07;;;2.50;;
52542;SDS011;38449;52.696;6.186;2022-07-22T04:53:15;9.27;;;2.65;;
52542;SDS011;38449;52.696;6.186;2022-07-22T04:55:41;6.00;;;2.40;;
52542;SDS011;38449;52.696;6.186;2022-07-22T04:58:06;7.22;;;2.60;;
52542;SDS011;38449;52.696;6.186;2022-07-22T05:00:32;7.55;;;2.47;;
52542;SDS011;38449;52.696;6.186;2022-07-22T05:02:58;6.75;;;2.38;;
52542;SDS011;38449;52.696;6.186;2022-07-22T05:05:24;5.32;;;2.25;;
52542;SDS011;38449;52.696;6.186;2022-07-22T05:07:50;7.35;;;2.33;;
52542;SDS011;38449;52.696;6.186;2022-07-22T05:10:15;10.40;;;3.05;;
52542;SDS011;38449;52.696;6.186;2022-07-22T05:12:41;8.18;;;2.70;;
52542;SDS011;38449;52.696;6.186;2022-07-22T05:15:07;8.85;;;2.50;;
52542;SDS011;38449;52.696;6.186;2022-07-22T05:17:33;8.85;;;2.50;;
52542;SDS011;38449;52.696;6.186;2022-07-22T05:20:01;6.53;;;2.65;;
52542;SDS011;38449;52.696;6.186;2022-07-22T05:22:28;7.43;;;2.33;;
52542;SDS011;38449;52.696;6.186;2022-07-22T05:24:53;4.72;;;2.35;;
52542;SDS011;38449;52.696;6.186;2022-07-22T05:27:19;7.65;;;2.40;;
52542;SDS011;38449;52.696;6.186;2022-07-22T05:29:45;5.82;;;2.22;;
52542;SDS011;38449;52.696;6.186;2022-07-22T05:32:10;4.93;;;1.90;;
52542;SDS011;38449;52.696;6.186;2022-07-22T05:34:36;5.88;;;2.20;;
52542;SDS011;38449;52.696;6.186;2022-07-22T05:37:02;13.95;;;2.22;;
52542;SDS011;38449;52.696;6.186;2022-07-22T05:39:27;7.30;;;2.50;;
52542;SDS011;38449;52.696;6.186;2022-07-22T05:41:53;5.93;;;1.75;;
52542;SDS011;38449;52.696;6.186;2022-07-22T05:44:19;6.35;;;1.90;;
52542;SDS011;38449;52.696;6.186;2022-07-22T05:46:45;9.70;;;2.40;;
52542;SDS011;38449;52.696;6.186;2022-07-22T05:49:10;5.13;;;2.05;;
52542;SDS011;38449;52.696;6.186;2022-07-22T05:51:36;4.30;;;1.52;;
52542;SDS011;38449;52.696;6.186;2022-07-22T05:54:02;5.57;;;1.90;;
52542;SDS011;38449;52.696;6.186;2022-07-22T05:56:28;6.07;;;2.00;;
52542;SDS011;38449;52.696;6.186;2022-07-22T05:58:53;6.47;;;2.22;;
52542;SDS011;38449;52.696;6.186;2022-07-22T06:01:21;4.03;;;1.80;;
52542;SDS011;38449;52.696;6.186;2022-07-22T06:03:47;3.65;;;1.60;;
52542;SDS011;38449;52.696;6.186;2022-07-22T06:06:13;7.35;;;2.00;;
52542;SDS011;38449;52.696;6.186;2022-07-22T06:08:38;5.38;;;1.95;;
52542;SDS011;38449;52.696;6.186;2022-07-22T06:11:04;4.88;;;1.95;;
52542;SDS011;38449;52.696;6.186;2022-07-22T06:13:30;3.45;;;1.83;;
52542;SDS011;38449;52.696;6.186;2022-07-22T06:15:56;5.65;;;2.08;;
52542;SDS011;38449;52.696;6.186;2022-07-22T06:18:22;6.15;;;2.10;;
52542;SDS011;38449;52.696;6.186;2022-07-22T06:20:48;5.45;;;1.98;;
52542;SDS011;38449;52.696;6.186;2022-07-22T06:23:13;7.53;;;2.25;;
52542;SDS011;38449;52.696;6.186;2022-07-22T06:25:39;4.22;;;1.80;;
52542;SDS011;38449;52.696;6.186;2022-07-22T06:28:05;5.63;;;2.00;;
52542;SDS011;38449;52.696;6.186;2022-07-22T06:30:31;6.13;;;2.00;;
52542;SDS011;38449;52.696;6.186;2022-07-22T06:32:57;5.40;;;2.00;;
52542;SDS011;38449;52.696;6.186;2022-07-22T06:35:22;6.47;;;2.05;;
52542;SDS011;38449;52.696;6.186;2022-07-22T06:37:51;6.70;;;2.15;;
52542;SDS011;38449;52.696;6.186;2022-07-22T06:40:17;6.57;;;2.20;;
52542;SDS011;38449;52.696;6.186;2022-07-22T06:42:42;3.83;;;1.83;;
52542;SDS011;38449;52.696;6.186;2022-07-22T06:45:08;6.40;;;2.10;;
52542;SDS011;38449;52.696;6.186;2022-07-22T06:47:34;6.53;;;2.10;;
52542;SDS011;38449;52.696;6.186;2022-07-22T06:50:04;3.55;;;1.77;;
52542;SDS011;38449;52.696;6.186;2022-07-22T06:52:32;6.97;;;2.05;;
52542;SDS011;38449;52.696;6.186;2022-07-22T06:54:57;4.63;;;1.55;;
52542;SDS011;38449;52.696;6.186;2022-07-22T06:57:23;5.57;;;1.90;;
52542;SDS011;38449;52.696;6.186;2022-07-22T06:59:49;7.72;;;2.17;;
52542;SDS011;38449;52.696;6.186;2022-07-22T07:02:15;5.15;;;1.63;;
52542;SDS011;38449;52.696;6.186;2022-07-22T07:04:40;5.50;;;1.63;;
52542;SDS011;38449;52.696;6.186;2022-07-22T07:07:07;8.10;;;2.17;;
52542;SDS011;38449;52.696;6.186;2022-07-22T07:09:33;6.80;;;1.83;;
52542;SDS011;38449;52.696;6.186;2022-07-22T07:11:58;4.35;;;1.80;;
52542;SDS011;38449;52.696;6.186;2022-07-22T07:14:24;6.53;;;1.80;;
52542;SDS011;38449;52.696;6.186;2022-07-22T07:16:49;5.32;;;1.77;;
52542;SDS011;38449;52.696;6.186;2022-07-22T07:19:15;7.22;;;1.77;;
52542;SDS011;38449;52.696;6.186;2022-07-22T07:21:41;4.32;;;1.60;;
52542;SDS011;38449;52.696;6.186;2022-07-22T07:24:06;6.47;;;1.80;;
52542;SDS011;38449;52.696;6.186;2022-07-22T07:26:35;6.15;;;1.77;;
52542;SDS011;38449;52.696;6.186;2022-07-22T07:29:00;9.05;;;2.05;;
52542;SDS011;38449;52.696;6.186;2022-07-22T07:31:26;12.68;;;2.55;;
52542;SDS011;38449;52.696;6.186;2022-07-22T07:33:52;9.10;;;2.40;;
52542;SDS011;38449;52.696;6.186;2022-07-22T07:36:19;6.57;;;2.13;;
52542;SDS011;38449;52.696;6.186;2022-07-22T07:38:45;6.18;;;1.90;;
52542;SDS011;38449;52.696;6.186;2022-07-22T07:41:11;5.30;;;1.65;;
52542;SDS011;38449;52.696;6.186;2022-07-22T07:43:37;7.13;;;1.65;;
52542;SDS011;38449;52.696;6.186;2022-07-22T07:46:03;6.80;;;1.52;;
52542;SDS011;38449;52.696;6.186;2022-07-22T07:48:29;3.03;;;1.27;;
52542;SDS011;38449;52.696;6.186;2022-07-22T07:50:54;3.97;;;1.73;;
52542;SDS011;38449;52.696;6.186;2022-07-22T07:53:20;5.63;;;2.00;;
52542;SDS011;38449;52.696;6.186;2022-07-22T07:55:46;4.70;;;2.10;;
52542;SDS011;38449;52.696;6.186;2022-07-22T07:58:12;5.65;;;2.20;;
52542;SDS011;38449;52.696;6.186;2022-07-22T08:00:38;7.55;;;2.42;;
52542;SDS011;38449;52.696;6.186;2022-07-22T08:03:04;6.90;;;2.10;;
52542;SDS011;38449;52.696;6.186;2022-07-22T08:05:30;4.95;;;2.47;;
52542;SDS011;38449;52.696;6.186;2022-07-22T08:07:56;6.57;;;2.25;;
52542;SDS011;38449;52.696;6.186;2022-07-22T08:10:22;6.10;;;2.67;;
52542;SDS011;38449;52.696;6.186;2022-07-22T08:12:48;5.57;;;2.03;;
52542;SDS011;38449;52.696;6.186;2022-07-22T08:15:14;3.58;;;1.30;;
52542;SDS011;38449;52.696;6.186;2022-07-22T08:17:41;4.57;;;1.55;;
52542;SDS011;38449;52.696;6.186;2022-07-22T08:20:07;3.95;;;1.35;;
52542;SDS011;38449;52.696;6.186;2022-07-22T08:22:33;5.35;;;1.38;;
52542;SDS011;38449;52.696;6.186;2022-07-22T08:24:59;5.18;;;1.55;;
52542;SDS011;38449;52.696;6.186;2022-07-22T08:27:25;6.28;;;1.40;;
52542;SDS011;38449;52.696;6.186;2022-07-22T08:29:51;3.65;;;1.23;;
52542;SDS011;38449;52.696;6.186;2022-07-22T08:32:17;5.75;;;1.50;;
52542;SDS011;38449;52.696;6.186;2022-07-22T08:34:43;4.93;;;1.30;;
52542;SDS011;38449;52.696;6.186;2022-07-22T08:37:09;4.20;;;1.67;;
52542;SDS011;38449;52.696;6.186;2022-07-22T08:39:35;5.05;;;1.88;;
52542;SDS011;38449;52.696;6.186;2022-07-22T08:42:01;5.05;;;1.50;;
52542;SDS011;38449;52.696;6.186;2022-07-22T08:44:30;3.67;;;1.38;;
52542;SDS011;38449;52.696;6.186;2022-07-22T08:46:57;6.72;;;1.80;;
52542;SDS011;38449;52.696;6.186;2022-07-22T08:49:24;5.43;;;1.83;;
52542;SDS011;38449;52.696;6.186;2022-07-22T08:51:49;3.88;;;1.48;;
52542;SDS011;38449;52.696;6.186;2022-07-22T08:54:15;3.17;;;1.20;;
52542;SDS011;38449;52.696;6.186;2022-07-22T08:56:41;4.40;;;1.20;;
52542;SDS011;38449;52.696;6.186;2022-07-22T08:59:08;3.83;;;1.42;;
52542;SDS011;38449;52.696;6.186;2022-07-22T09:01:33;4.18;;;1.38;;
52542;SDS011;38449;52.696;6.186;2022-07-22T09:03:59;4.65;;;1.35;;
52542;SDS011;38449;52.696;6.186;2022-07-22T09:06:26;4.10;;;1.23;;
52542;SDS011;38449;52.696;6.186;2022-07-22T09:08:59;4.47;;;1.70;;
52542;SDS011;38449;52.696;6.186;2022-07-22T09:11:27;6.82;;;1.58;;
52542;SDS011;38449;52.696;6.186;2022-07-22T09:13:54;3.85;;;1.38;;
52542;SDS011;38449;52.696;6.186;2022-07-22T09:19:12;5.32;;;1.30;;
52542;SDS011;38449;52.696;6.186;2022-07-22T09:21:42;2.85;;;1.30;;
52542;SDS011;38449;52.696;6.186;2022-07-22T09:24:25;6.35;;;1.45;;
52542;SDS011;38449;52.696;6.186;2022-07-22T09:26:56;5.13;;;1.30;;
52542;SDS011;38449;52.696;6.186;2022-07-22T09:29:22;3.92;;;1.38;;
52542;SDS011;38449;52.696;6.186;2022-07-22T09:31:50;5.70;;;1.30;;
52542;SDS011;38449;52.696;6.186;2022-07-22T09:34:27;3.92;;;1.33;;
52542;SDS011;38449;52.696;6.186;2022-07-22T09:36:55;5.43;;;1.55;;
52542;SDS011;38449;52.696;6.186;2022-07-22T09:39:26;3.80;;;1.55;;
52542;SDS011;38449;52.696;6.186;2022-07-22T09:41:56;2.08;;;1.33;;
52542;SDS011;38449;52.696;6.186;2022-07-22T09:44:35;3.55;;;1.35;;
52542;SDS011;38449;52.696;6.186;2022-07-22T09:47:01;3.40;;;1.40;;
52542;SDS011;38449;52.696;6.186;2022-07-22T09:49:34;2.53;;;1.20;;
52542;SDS011;38449;52.696;6.186;2022-07-22T09:52:02;4.65;;;1.38;;
52542;SDS011;38449;52.696;6.186;2022-07-22T09:54:29;4.35;;;1.65;;
52542;SDS011;38449;52.696;6.186;2022-07-22T09:56:56;3.45;;;1.33;;
52542;SDS011;38449;52.696;6.186;2022-07-22T09:59:22;5.15;;;1.70;;
52542;SDS011;38449;52.696;6.186;2022-07-22T10:01:49;6.65;;;1.55;;
52542;SDS011;38449;52.696;6.186;2022-07-22T10:04:19;5.88;;;1.80;;
52542;SDS011;38449;52.696;6.186;2022-07-22T10:06:45;4.75;;;1.48;;
52542;SDS011;38449;52.696;6.186;2022-07-22T10:09:14;1.67;;;1.20;;
52542;SDS011;38449;52.696;6.186;2022-07-22T10:11:42;4.70;;;1.25;;
52542;SDS011;38449;52.696;6.186;2022-07-22T10:14:13;3.63;;;1.30;;
52542;SDS011;38449;52.696;6.186;2022-07-22T10:16:41;3.25;;;1.20;;
52542;SDS011;38449;52.696;6.186;2022-07-22T10:19:08;4.95;;;1.48;;
52542;SDS011;38449;52.696;6.186;2022-07-22T10:21:35;4.90;;;1.35;;
52542;SDS011;38449;52.696;6.186;2022-07-22T10:24:20;4.00;;;1.23;;
52542;SDS011;38449;52.696;6.186;2022-07-22T10:26:52;5.65;;;1.90;;
52542;SDS011;38449;52.696;6.186;2022-07-22T10:29:27;4.13;;;1.35;;
52542;SDS011;38449;52.696;6.186;2022-07-22T10:34:42;4.15;;;1.30;;
52542;SDS011;38449;52.696;6.186;2022-07-22T10:37:35;7.30;;;1.75;;
52542;SDS011;38449;52.696;6.186;2022-07-22T10:45:35;6.63;;;1.50;;
52542;SDS011;38449;52.696;6.186;2022-07-22T10:48:07;5.47;;;1.30;;
52542;SDS011;38449;52.696;6.186;2022-07-22T10:53:03;3.70;;;1.33;;
52542;SDS011;38449;52.696;6.186;2022-07-22T11:01:30;3.95;;;1.40;;
52542;SDS011;38449;52.696;6.186;2022-07-22T11:04:06;7.07;;;2.10;;
52542;SDS011;38449;52.696;6.186;2022-07-22T11:06:34;5.47;;;1.70;;
52542;SDS011;38449;52.696;6.186;2022-07-22T11:09:07;3.67;;;1.40;;
52542;SDS011;38449;52.696;6.186;2022-07-22T11:16:59;3.90;;;1.45;;
52542;SDS011;38449;52.696;6.186;2022-07-22T11:19:30;3.22;;;1.10;;
52542;SDS011;38449;52.696;6.186;2022-07-22T11:22:07;3.72;;;1.63;;
52542;SDS011;38449;52.696;6.186;2022-07-22T11:24:37;3.67;;;1.30;;
52542;SDS011;38449;52.696;6.186;2022-07-22T11:27:06;5.00;;;1.40;;
52542;SDS011;38449;52.696;6.186;2022-07-22T11:32:06;4.88;;;1.60;;
52542;SDS011;38449;52.696;6.186;2022-07-22T11:34:35;3.45;;;1.30;;
52542;SDS011;38449;52.696;6.186;2022-07-22T11:37:02;5.32;;;1.38;;
52542;SDS011;38449;52.696;6.186;2022-07-22T11:39:29;4.65;;;1.23;;
52542;SDS011;38449;52.696;6.186;2022-07-22T11:41:56;4.20;;;1.30;;
52542;SDS011;38449;52.696;6.186;2022-07-22T11:44:24;2.42;;;1.27;;
52542;SDS011;38449;52.696;6.186;2022-07-22T11:46:52;5.38;;;1.52;;
52542;SDS011;38449;52.696;6.186;2022-07-22T11:49:20;5.30;;;1.38;;
52542;SDS011;38449;52.696;6.186;2022-07-22T11:51:46;4.82;;;1.38;;
52542;SDS011;38449;52.696;6.186;2022-07-22T11:54:13;2.50;;;1.15;;
52542;SDS011;38449;52.696;6.186;2022-07-22T11:56:39;6.15;;;1.20;;
52542;SDS011;38449;52.696;6.186;2022-07-22T11:59:05;3.05;;;1.40;;
52542;SDS011;38449;52.696;6.186;2022-07-22T12:01:34;5.18;;;1.00;;
52542;SDS011;38449;52.696;6.186;2022-07-22T12:04:05;5.63;;;1.40;;
52542;SDS011;38449;52.696;6.186;2022-07-22T12:06:42;8.25;;;1.52;;
52542;SDS011;38449;52.696;6.186;2022-07-22T12:09:13;1.92;;;1.20;;
52542;SDS011;38449;52.696;6.186;2022-07-22T12:11:51;3.22;;;1.20;;
52542;SDS011;38449;52.696;6.186;2022-07-22T12:14:23;2.22;;;1.33;;
52542;SDS011;38449;52.696;6.186;2022-07-22T12:19:31;2.70;;;1.02;;
52542;SDS011;38449;52.696;6.186;2022-07-22T12:21:59;3.22;;;1.45;;
52542;SDS011;38449;52.696;6.186;2022-07-22T12:24:46;4.78;;;1.40;;
52542;SDS011;38449;52.696;6.186;2022-07-22T12:27:22;1.98;;;1.00;;
52542;SDS011;38449;52.696;6.186;2022-07-22T12:29:51;3.08;;;1.20;;
52542;SDS011;38449;52.696;6.186;2022-07-22T12:34:44;4.53;;;1.42;;
52542;SDS011;38449;52.696;6.186;2022-07-22T12:37:25;3.50;;;1.10;;
52542;SDS011;38449;52.696;6.186;2022-07-22T12:42:22;3.35;;;1.13;;
52542;SDS011;38449;52.696;6.186;2022-07-22T12:50:25;2.28;;;0.80;;
52542;SDS011;38449;52.696;6.186;2022-07-22T12:53:10;2.17;;;1.10;;
52542;SDS011;38449;52.696;6.186;2022-07-22T12:58:11;3.85;;;1.08;;
52542;SDS011;38449;52.696;6.186;2022-07-22T13:00:38;3.60;;;1.00;;
52542;SDS011;38449;52.696;6.186;2022-07-22T13:03:06;3.58;;;1.30;;
52542;SDS011;38449;52.696;6.186;2022-07-22T13:05:35;3.25;;;1.40;;
52542;SDS011;38449;52.696;6.186;2022-07-22T13:08:01;5.00;;;1.50;;
52542;SDS011;38449;52.696;6.186;2022-07-22T13:10:27;3.25;;;1.20;;
52542;SDS011;38449;52.696;6.186;2022-07-22T13:12:53;4.28;;;1.23;;
52542;SDS011;38449;52.696;6.186;2022-07-22T13:15:20;4.25;;;1.35;;
52542;SDS011;38449;52.696;6.186;2022-07-22T13:17:47;3.03;;;1.30;;
52542;SDS011;38449;52.696;6.186;2022-07-22T13:20:16;4.10;;;1.40;;
52542;SDS011;38449;52.696;6.186;2022-07-22T13:22:45;2.75;;;1.10;;
52542;SDS011;38449;52.696;6.186;2022-07-22T13:25:11;1.65;;;1.10;;
52542;SDS011;38449;52.696;6.186;2022-07-22T13:27:38;6.80;;;1.70;;
52542;SDS011;38449;52.696;6.186;2022-07-22T13:30:04;2.63;;;1.40;;
52542;SDS011;38449;52.696;6.186;2022-07-22T13:32:30;3.72;;;1.52;;
52542;SDS011;38449;52.696;6.186;2022-07-22T13:34:56;4.03;;;1.33;;
52542;SDS011;38449;52.696;6.186;2022-07-22T13:37:22;3.70;;;1.40;;
52542;SDS011;38449;52.696;6.186;2022-07-22T13:39:51;2.55;;;1.15;;
52542;SDS011;38449;52.696;6.186;2022-07-22T13:42:17;3.30;;;1.33;;
52542;SDS011;38449;52.696;6.186;2022-07-22T13:44:44;3.67;;;1.40;;
52542;SDS011;38449;52.696;6.186;2022-07-22T13:47:10;4.93;;;1.50;;
52542;SDS011;38449;52.696;6.186;2022-07-22T13:49:36;2.22;;;1.30;;
52542;SDS011;38449;52.696;6.186;2022-07-22T13:52:03;2.60;;;1.05;;
52542;SDS011;38449;52.696;6.186;2022-07-22T13:54:29;3.28;;;1.10;;
52542;SDS011;38449;52.696;6.186;2022-07-22T13:56:55;2.28;;;1.02;;
52542;SDS011;38449;52.696;6.186;2022-07-22T13:59:22;1.77;;;0.80;;
52542;SDS011;38449;52.696;6.186;2022-07-22T14:01:49;5.22;;;1.20;;
52542;SDS011;38449;52.696;6.186;2022-07-22T14:04:15;2.38;;;1.08;;
52542;SDS011;38449;52.696;6.186;2022-07-22T14:06:41;2.75;;;1.00;;
52542;SDS011;38449;52.696;6.186;2022-07-22T14:09:06;3.45;;;1.17;;
52542;SDS011;38449;52.696;6.186;2022-07-22T14:11:35;2.85;;;1.10;;
52542;SDS011;38449;52.696;6.186;2022-07-22T14:14:00;3.10;;;1.27;;
52542;SDS011;38449;52.696;6.186;2022-07-22T14:16:26;3.33;;;1.23;;
52542;SDS011;38449;52.696;6.186;2022-07-22T14:19:03;2.45;;;1.30;;
52542;SDS011;38449;52.696;6.186;2022-07-22T14:21:30;3.97;;;1.45;;
52542;SDS011;38449;52.696;6.186;2022-07-22T14:23:56;3.35;;;1.30;;
52542;SDS011;38449;52.696;6.186;2022-07-22T14:26:22;2.63;;;1.20;;
52542;SDS011;38449;52.696;6.186;2022-07-22T14:28:48;4.43;;;1.30;;
52542;SDS011;38449;52.696;6.186;2022-07-22T14:31:14;2.45;;;1.20;;
52542;SDS011;38449;52.696;6.186;2022-07-22T14:33:40;3.30;;;1.50;;
52542;SDS011;38449;52.696;6.186;2022-07-22T14:36:06;2.38;;;1.00;;
52542;SDS011;38449;52.696;6.186;2022-07-22T14:38:32;4.32;;;1.48;;
52542;SDS011;38449;52.696;6.186;2022-07-22T14:40:58;3.30;;;1.30;;
52542;SDS011;38449;52.696;6.186;2022-07-22T14:43:23;4.43;;;1.40;;
52542;SDS011;38449;52.696;6.186;2022-07-22T14:45:49;5.65;;;1.75;;
52542;SDS011;38449;52.696;6.186;2022-07-22T14:48:15;11.18;;;6.20;;
52542;SDS011;38449;52.696;6.186;2022-07-22T14:50:41;12.52;;;6.75;;
52542;SDS011;38449;52.696;6.186;2022-07-22T14:53:06;31.85;;;16.17;;
52542;SDS011;38449;52.696;6.186;2022-07-22T14:55:32;21.20;;;8.88;;
52542;SDS011;38449;52.696;6.186;2022-07-22T14:57:58;8.70;;;3.00;;
52542;SDS011;38449;52.696;6.186;2022-07-22T15:00:23;4.68;;;2.63;;
52542;SDS011;38449;52.696;6.186;2022-07-22T15:02:49;4.85;;;1.60;;
52542;SDS011;38449;52.696;6.186;2022-07-22T15:05:15;4.43;;;1.52;;
52542;SDS011;38449;52.696;6.186;2022-07-22T15:07:40;4.25;;;1.50;;
52542;SDS011;38449;52.696;6.186;2022-07-22T15:10:07;2.95;;;1.10;;
52542;SDS011;38449;52.696;6.186;2022-07-22T15:12:33;3.95;;;1.40;;
52542;SDS011;38449;52.696;6.186;2022-07-22T15:14:59;4.00;;;1.42;;
52542;SDS011;38449;52.696;6.186;2022-07-22T15:17:25;3.63;;;1.30;;
52542;SDS011;38449;52.696;6.186;2022-07-22T15:19:51;2.92;;;1.27;;
52542;SDS011;38449;52.696;6.186;2022-07-22T15:22:16;3.85;;;1.42;;
52542;SDS011;38449;52.696;6.186;2022-07-22T15:24:42;2.25;;;1.10;;
52542;SDS011;38449;52.696;6.186;2022-07-22T15:27:08;3.80;;;1.23;;